createdAt,value
2022-08-01T00:01:34.310Z,2.60
2022-08-01T00:04:02.943Z,1.20
2022-08-01T00:06:31.617Z,1.70
2022-08-01T00:09:01.629Z,0.93
2022-08-01T00:11:30.190Z,1.20
2022-08-01T00:13:58.854Z,1.77
2022-08-01T00:16:27.464Z,1.30
2022-08-01T00:18:56.289Z,1.20
2022-08-01T00:21:24.913Z,1.30
2022-08-01T00:23:53.535Z,1.40
2022-08-01T00:26:23.509Z,1.47
2022-08-01T00:28:52.085Z,0.93
2022-08-01T00:31:21.235Z,1.60
2022-08-01T00:33:50.186Z,1.30
2022-08-01T00:36:18.890Z,2.77
2022-08-01T00:38:47.509Z,1.67
2022-08-01T00:41:16.109Z,1.47
2022-08-01T00:43:46.090Z,1.53
2022-08-01T00:46:14.828Z,1.40
2022-08-01T00:48:43.496Z,1.40
2022-08-01T00:51:12.236Z,1.13
2022-08-01T00:53:51.580Z,1.10
2022-08-01T00:56:21.313Z,1.20
2022-08-01T00:58:51.340Z,1.20
2022-08-01T01:01:21.939Z,1.27
2022-08-01T01:03:59.661Z,1.27
2022-08-01T01:06:30.770Z,1.10
2022-08-01T01:09:03.692Z,1.47
2022-08-01T01:11:35.622Z,1.07
2022-08-01T01:14:07.973Z,1.10
2022-08-01T01:16:38.006Z,1.30
2022-08-01T01:19:07.992Z,1.20
2022-08-01T01:21:42.698Z,1.53
2022-08-01T01:24:19.712Z,1.40
2022-08-01T01:26:52.332Z,1.27
2022-08-01T01:29:26.433Z,1.40
2022-08-01T01:31:58.137Z,1.13
2022-08-01T01:34:27.098Z,1.73
2022-08-01T01:36:57.296Z,1.37
2022-08-01T01:39:27.260Z,1.27
2022-08-01T01:41:57.147Z,1.47
2022-08-01T01:44:28.044Z,1.23
2022-08-01T01:46:57.413Z,1.10
2022-08-01T01:49:26.817Z,1.57
2022-08-01T01:52:02.760Z,1.47
2022-08-01T01:54:33.145Z,1.30
2022-08-01T01:57:03.411Z,1.53
2022-08-01T01:59:35.002Z,1.20
2022-08-01T02:02:06.333Z,1.30
2022-08-01T02:04:35.688Z,1.40
2022-08-01T02:07:04.530Z,1.23
2022-08-01T02:09:33.624Z,1.40
2022-08-01T02:12:07.921Z,1.30
2022-08-01T02:14:40.962Z,1.30
2022-08-01T02:17:11.803Z,1.23
2022-08-01T02:19:41.313Z,1.33
2022-08-01T02:22:12.526Z,1.60
2022-08-01T02:24:43.417Z,1.43
2022-08-01T02:27:14.437Z,1.37
2022-08-01T02:29:46.399Z,1.47
2022-08-01T02:32:17.238Z,1.87
2022-08-01T02:34:46.800Z,2.50
2022-08-01T02:37:16.357Z,1.73
2022-08-01T02:39:45.829Z,1.73
2022-08-01T02:42:15.933Z,1.00
2022-08-01T02:44:46.829Z,1.40
2022-08-01T02:47:15.721Z,1.87
2022-08-01T02:49:46.178Z,1.20
2022-08-01T02:52:16.421Z,1.40
2022-08-01T02:54:46.469Z,1.27
2022-08-01T02:57:15.779Z,1.80
2022-08-01T02:59:49.978Z,1.27
2022-08-01T03:02:19.437Z,1.50
2022-08-01T03:04:50.758Z,1.30
2022-08-01T03:07:24.874Z,2.63
2022-08-01T03:10:04.425Z,1.40
2022-08-01T03:12:35.618Z,1.47
2022-08-01T03:15:06.510Z,1.70
2022-08-01T03:17:35.974Z,1.47
2022-08-01T03:20:05.084Z,1.40
2022-08-01T03:22:35.125Z,1.50
2022-08-01T03:25:04.694Z,1.30
2022-08-01T03:27:33.578Z,3.10
2022-08-01T03:30:02.370Z,1.47
2022-08-01T03:32:32.792Z,1.37
2022-08-01T03:35:01.406Z,1.40
2022-08-01T03:37:30.714Z,1.67
2022-08-01T03:40:00.966Z,1.63
2022-08-01T03:42:33.964Z,1.40
2022-08-01T03:45:05.196Z,2.03
2022-08-01T03:47:41.926Z,1.50
2022-08-01T03:50:14.481Z,1.67
2022-08-01T03:52:44.765Z,1.50
2022-08-01T03:55:14.280Z,2.27
2022-08-01T03:57:43.449Z,1.60
2022-08-01T04:00:12.683Z,1.53
2022-08-01T04:02:43.022Z,2.17
2022-08-01T04:05:11.977Z,1.70
2022-08-01T04:07:43.796Z,1.47
2022-08-01T04:10:12.416Z,1.77
2022-08-01T04:12:41.036Z,1.67
2022-08-01T04:15:10.129Z,1.70
2022-08-01T04:17:39.069Z,1.73
2022-08-01T04:20:09.720Z,2.83
2022-08-01T04:22:39.988Z,1.87
2022-08-01T04:25:12.085Z,1.70
2022-08-01T04:27:50.674Z,1.90
2022-08-01T04:30:22.725Z,1.97
2022-08-01T04:32:51.892Z,2.20
2022-08-01T04:36:02.888Z,2.20
2022-08-01T04:38:11.876Z,2.27
2022-08-01T04:40:40.677Z,2.10
2022-08-01T04:43:09.377Z,2.97
2022-08-01T04:45:38.374Z,2.13
2022-08-01T04:48:08.481Z,2.93
2022-08-01T04:50:39.201Z,1.83
2022-08-01T04:53:07.782Z,2.27
2022-08-01T04:55:36.509Z,2.20
2022-08-01T04:58:05.335Z,3.10
2022-08-01T05:00:34.966Z,3.60
2022-08-01T05:03:03.856Z,2.57
2022-08-01T05:05:32.828Z,3.33
2022-08-01T05:08:02.776Z,2.73
2022-08-01T05:10:31.697Z,2.50
2022-08-01T05:13:00.443Z,2.53
2022-08-01T05:15:29.112Z,3.60
2022-08-01T05:17:58.258Z,4.53
2022-08-01T05:20:27.124Z,3.00
2022-08-01T05:22:55.735Z,3.33
2022-08-01T05:25:53.128Z,6.13
2022-08-01T05:28:19.183Z,5.20
2022-08-01T05:30:48.066Z,3.50
2022-08-01T05:33:16.700Z,4.53
2022-08-01T05:35:47.978Z,3.40
2022-08-01T05:38:17.845Z,4.27
2022-08-01T05:40:47.836Z,4.20
2022-08-01T05:43:16.436Z,4.37
2022-08-01T05:45:45.514Z,4.80
2022-08-01T05:48:14.187Z,5.80
2022-08-01T05:50:42.823Z,5.03
2022-08-01T05:53:11.488Z,7.83
2022-08-01T05:55:40.107Z,5.90
2022-08-01T05:58:12.143Z,6.20
2022-08-01T06:00:41.409Z,5.90
2022-08-01T06:03:10.044Z,4.47
2022-08-01T06:05:38.629Z,4.50
2022-08-01T06:08:07.232Z,3.67
2022-08-01T06:10:35.878Z,5.03
2022-08-01T06:13:04.860Z,4.70
2022-08-01T06:15:35.251Z,4.70
2022-08-01T06:18:04.692Z,6.07
2022-08-01T06:20:33.572Z,4.10
2022-08-01T06:23:02.523Z,6.37
2022-08-01T06:25:40.675Z,5.40
2022-08-01T06:28:09.253Z,4.70
2022-08-01T06:30:39.225Z,7.77
2022-08-01T06:33:07.912Z,5.63
2022-08-01T06:35:36.837Z,5.50
2022-08-01T06:38:05.701Z,6.40
2022-08-01T06:40:34.446Z,5.87
2022-08-01T06:43:05.219Z,5.43
2022-08-01T06:45:33.820Z,5.17
2022-08-01T06:48:03.785Z,5.73
2022-08-01T06:50:32.541Z,5.33
2022-08-01T06:53:01.236Z,5.73
2022-08-01T06:55:29.897Z,4.70
2022-08-01T06:57:58.812Z,7.33
2022-08-01T07:00:28.110Z,5.10
2022-08-01T07:02:59.419Z,4.80
2022-08-01T07:05:31.847Z,4.80
2022-08-01T07:08:00.740Z,5.47
2022-08-01T07:10:29.323Z,5.30
2022-08-01T07:12:57.972Z,4.23
2022-08-01T07:15:27.517Z,5.40
2022-08-01T07:17:57.847Z,5.00
2022-08-01T07:20:26.422Z,4.33
2022-08-01T07:22:56.563Z,4.23
2022-08-01T07:25:25.404Z,4.20
2022-08-01T07:27:53.980Z,5.13
2022-08-01T07:30:22.702Z,5.93
2022-08-01T07:32:51.353Z,4.10
2022-08-01T07:35:20.043Z,4.53
2022-08-01T07:37:49.501Z,4.50
2022-08-01T07:40:20.356Z,4.30
2022-08-01T07:42:49.546Z,4.60
2022-08-01T07:45:18.312Z,4.33
2022-08-01T07:47:47.684Z,4.37
2022-08-01T07:50:16.312Z,5.83
2022-08-01T07:52:45.271Z,5.43
2022-08-01T07:55:16.576Z,4.87
2022-08-01T07:57:46.878Z,4.90
2022-08-01T08:00:15.828Z,5.97
2022-08-01T08:02:45.025Z,5.43
2022-08-01T08:05:13.827Z,5.67
2022-08-01T08:07:42.518Z,5.27
2022-08-01T08:10:11.678Z,6.80
2022-08-01T08:12:40.489Z,5.60
2022-08-01T08:15:11.303Z,5.60
2022-08-01T08:17:39.884Z,5.87
2022-08-01T08:20:09.760Z,6.23
2022-08-01T08:22:39.386Z,6.20
2022-08-01T08:25:09.301Z,6.23
2022-08-01T08:27:38.053Z,5.77
2022-08-01T08:30:08.434Z,6.07
2022-08-01T08:32:38.699Z,5.67
2022-08-01T08:35:07.897Z,5.97
2022-08-01T08:37:38.034Z,6.20
2022-08-01T08:40:08.518Z,5.57
2022-08-01T08:42:37.409Z,6.33
2022-08-01T08:45:06.492Z,5.93
2022-08-01T08:47:42.331Z,5.43
2022-08-01T08:50:11.235Z,6.57
2022-08-01T08:52:41.140Z,5.87
2022-08-01T08:55:11.750Z,5.27
2022-08-01T08:57:42.261Z,4.33
2022-08-01T09:00:12.767Z,5.23
2022-08-01T09:02:45.218Z,4.27
2022-08-01T09:05:17.573Z,4.37
2022-08-01T09:07:47.677Z,5.00
2022-08-01T09:10:16.317Z,3.60
2022-08-01T09:12:59.889Z,4.67
2022-08-01T09:15:40.104Z,3.20
2022-08-01T09:18:10.137Z,3.43
2022-08-01T09:20:38.725Z,3.47
2022-08-01T09:23:07.345Z,4.17
2022-08-01T09:25:53.366Z,3.47
2022-08-01T09:28:30.206Z,4.03
2022-08-01T09:30:59.507Z,3.37
2022-08-01T09:33:48.887Z,3.60
2022-08-01T09:36:19.505Z,3.83
2022-08-01T09:38:51.087Z,4.10
2022-08-01T09:41:19.981Z,4.33
2022-08-01T09:43:51.782Z,5.83
2022-08-01T09:46:22.730Z,5.30
2022-08-01T09:48:59.462Z,5.50
2022-08-01T09:51:59.096Z,6.23
2022-08-01T09:54:30.528Z,6.73
2022-08-01T09:57:10.214Z,5.73
2022-08-01T09:59:57.789Z,5.73
2022-08-01T10:02:31.461Z,5.43
2022-08-01T10:05:03.445Z,5.67
2022-08-01T10:07:43.050Z,5.63
2022-08-01T10:10:14.389Z,6.23
2022-08-01T10:12:44.348Z,6.07
2022-08-01T10:15:16.010Z,5.10
2022-08-01T10:17:50.745Z,6.30
2022-08-01T10:20:30.554Z,4.20
2022-08-01T10:23:02.883Z,3.70
2022-08-01T10:25:41.837Z,3.70
2022-08-01T10:28:18.201Z,3.50
2022-08-01T10:30:50.284Z,4.10
2022-08-01T10:33:50.978Z,3.73
2022-08-01T10:36:10.293Z,3.53
2022-08-01T10:38:39.530Z,3.63
2022-08-01T10:41:08.863Z,3.37
2022-08-01T10:43:37.793Z,2.70
2022-08-01T10:46:06.940Z,3.07
2022-08-01T10:48:42.260Z,3.77
2022-08-01T10:51:17.759Z,3.60
2022-08-01T10:53:54.343Z,4.97
2022-08-01T10:56:27.226Z,4.23
2022-08-01T10:59:06.056Z,3.83
2022-08-01T11:01:37.500Z,3.87
2022-08-01T11:04:16.113Z,4.07
2022-08-01T11:06:56.177Z,3.37
2022-08-01T11:09:39.924Z,4.03
2022-08-01T11:12:13.669Z,3.23
2022-08-01T11:15:14.100Z,1.50
2022-08-01T11:17:48.312Z,2.07
2022-08-01T11:20:18.216Z,2.47
2022-08-01T11:23:07.202Z,3.30
2022-08-01T11:26:06.634Z,3.10
2022-08-01T11:28:54.394Z,2.53
2022-08-01T11:31:37.409Z,3.30
2022-08-01T11:34:07.584Z,2.57
2022-08-01T11:39:24.917Z,2.37
2022-08-01T11:41:55.595Z,2.57
2022-08-01T11:44:34.363Z,2.40
2022-08-01T11:47:08.657Z,2.20
2022-08-01T11:50:00.464Z,2.50
2022-08-01T11:52:29.844Z,2.43
2022-08-01T11:55:00.021Z,1.97
2022-08-01T11:57:34.600Z,2.17
2022-08-01T12:00:08.724Z,2.40
2022-08-01T12:02:37.723Z,2.33
2022-08-01T12:05:11.918Z,2.50
2022-08-01T12:07:42.265Z,2.23
2022-08-01T12:10:11.889Z,2.47
2022-08-01T12:12:45.218Z,2.77
2022-08-01T12:15:15.857Z,3.90
2022-08-01T12:17:47.037Z,2.97
2022-08-01T12:20:30.129Z,2.50
2022-08-01T12:22:59.620Z,2.57
2022-08-01T12:25:28.242Z,2.40
2022-08-01T12:27:57.856Z,2.33
2022-08-01T12:30:28.043Z,2.27
2022-08-01T12:32:57.100Z,2.20
2022-08-01T12:35:26.700Z,2.57
2022-08-01T12:37:56.092Z,2.20
2022-08-01T12:40:25.419Z,2.27
2022-08-01T12:42:54.833Z,1.83
2022-08-01T12:45:26.521Z,2.27
2022-08-01T12:47:58.467Z,2.30
2022-08-01T12:50:29.058Z,2.03
2022-08-01T12:52:57.860Z,1.90
2022-08-01T12:55:34.239Z,2.10
2022-08-01T12:58:07.243Z,2.37
2022-08-01T13:00:36.079Z,2.17
2022-08-01T13:03:07.591Z,2.27
2022-08-01T13:05:46.282Z,1.90
2022-08-01T13:08:15.293Z,1.80
2022-08-01T13:10:44.376Z,1.90
2022-08-01T13:13:28.450Z,1.90
2022-08-01T13:16:06.122Z,2.28
2022-08-01T13:18:37.037Z,2.00
2022-08-01T13:21:12.867Z,2.22
2022-08-01T13:24:03.238Z,3.03
2022-08-01T13:26:46.245Z,1.92
2022-08-01T13:29:15.667Z,2.30
2022-08-01T13:31:44.469Z,2.20
2022-08-01T13:34:14.567Z,1.80
2022-08-01T13:36:48.998Z,2.43
2022-08-01T13:39:44.409Z,1.58
2022-08-01T13:42:18.948Z,1.27
2022-08-01T13:44:48.313Z,1.30
2022-08-01T13:47:17.143Z,0.95
2022-08-01T13:49:47.305Z,1.20
2022-08-01T13:52:15.964Z,1.30
2022-08-01T13:54:44.543Z,1.20
2022-08-01T13:57:13.144Z,1.80
2022-08-01T13:59:41.781Z,1.38
2022-08-01T14:02:10.544Z,1.48
2022-08-01T14:04:39.264Z,1.40
2022-08-01T14:07:14.560Z,1.60
2022-08-01T14:09:45.186Z,1.48
2022-08-01T14:12:32.081Z,1.40
2022-08-01T14:15:01.758Z,1.98
2022-08-01T14:17:30.410Z,1.67
2022-08-01T14:20:00.278Z,1.35
2022-08-01T14:22:30.342Z,3.25
2022-08-01T14:25:01.597Z,1.60
2022-08-01T14:27:32.655Z,1.50
2022-08-01T14:30:02.458Z,3.65
2022-08-01T14:32:34.160Z,1.23
2022-08-01T14:35:02.863Z,1.63
2022-08-01T14:37:37.904Z,1.73
2022-08-01T14:40:10.187Z,1.27
2022-08-01T14:42:39.879Z,1.23
2022-08-01T14:45:10.338Z,1.02
2022-08-01T14:47:39.098Z,1.85
2022-08-01T14:50:08.485Z,1.75
2022-08-01T14:52:40.161Z,1.30
2022-08-01T14:55:09.852Z,1.53
2022-08-01T14:57:38.498Z,1.33
2022-08-01T15:00:08.613Z,1.38
2022-08-01T15:02:37.197Z,1.38
2022-08-01T15:05:06.375Z,1.33
2022-08-01T15:07:38.006Z,1.20
2022-08-01T15:10:13.805Z,1.30
2022-08-01T15:12:50.357Z,2.07
2022-08-01T15:15:20.185Z,1.40
2022-08-01T15:17:48.854Z,1.40
2022-08-01T15:20:17.593Z,1.40
2022-08-01T15:22:46.278Z,1.57
2022-08-01T15:25:16.250Z,1.97
2022-08-01T15:27:44.874Z,1.57
2022-08-01T15:30:13.980Z,1.30
2022-08-01T15:32:42.601Z,1.63
2022-08-01T15:35:12.038Z,1.63
2022-08-01T15:37:43.061Z,1.30
2022-08-01T15:40:12.907Z,1.10
2022-08-01T15:42:42.934Z,1.20
2022-08-01T15:45:37.351Z,1.27
2022-08-01T15:48:02.185Z,1.20
2022-08-01T15:50:30.849Z,2.57
2022-08-01T15:52:59.448Z,1.13
2022-08-01T15:55:28.107Z,2.97
2022-08-01T15:57:58.087Z,0.80
2022-08-01T16:00:32.923Z,1.23
2022-08-01T16:03:07.699Z,1.37
2022-08-01T16:05:42.835Z,2.20
2022-08-01T16:08:12.762Z,2.60
2022-08-01T16:10:41.455Z,1.73
2022-08-01T16:13:11.528Z,1.50
2022-08-01T16:15:40.261Z,1.83
2022-08-01T16:18:09.270Z,1.87
2022-08-01T16:20:44.362Z,1.70
2022-08-01T16:23:14.405Z,2.23
2022-08-01T16:25:43.691Z,1.60
2022-08-01T16:28:13.951Z,1.60
2022-08-01T16:30:48.751Z,1.40
2022-08-01T16:33:41.219Z,1.87
2022-08-01T16:36:18.849Z,1.57
2022-08-01T16:38:48.244Z,1.53
2022-08-01T16:41:19.209Z,1.70
2022-08-01T16:43:53.390Z,1.63
2022-08-01T16:46:23.674Z,1.60
2022-08-01T16:48:52.523Z,1.93
2022-08-01T16:51:21.297Z,1.20
2022-08-01T16:53:49.936Z,1.30
2022-08-01T16:56:18.734Z,1.00
2022-08-01T16:58:47.400Z,2.58
2022-08-01T17:01:59.697Z,1.70
2022-08-01T17:04:07.220Z,1.10
2022-08-01T17:06:35.885Z,1.30
2022-08-01T17:09:04.633Z,1.30
2022-08-01T17:11:33.517Z,1.10
2022-08-01T17:14:02.183Z,2.47
2022-08-01T17:16:32.173Z,1.20
2022-08-01T17:19:00.798Z,1.70
2022-08-01T17:21:29.587Z,1.23
2022-08-01T17:23:58.220Z,1.30
2022-08-01T17:26:26.882Z,1.80
2022-08-01T17:28:55.478Z,1.42
2022-08-01T17:31:24.101Z,1.83
2022-08-01T17:33:55.137Z,1.25
2022-08-01T17:36:24.271Z,1.80
2022-08-01T17:38:52.842Z,1.63
2022-08-01T17:41:21.569Z,1.40
2022-08-01T17:43:50.190Z,1.42
2022-08-01T17:46:18.816Z,1.17
2022-08-01T17:48:47.504Z,1.80
2022-08-01T17:51:22.451Z,1.40
2022-08-01T17:53:55.484Z,1.08
2022-08-01T17:56:26.363Z,1.33
2022-08-01T17:58:55.245Z,1.40
2022-08-01T18:01:26.505Z,2.25
2022-08-01T18:03:57.668Z,1.70
2022-08-01T18:06:28.342Z,1.27
2022-08-01T18:08:59.671Z,1.57
2022-08-01T18:11:37.330Z,1.97
2022-08-01T18:14:06.586Z,1.73
2022-08-01T18:16:35.335Z,1.30
2022-08-01T18:19:04.081Z,1.63
2022-08-01T18:21:38.563Z,1.73
2022-08-01T18:24:09.820Z,1.20
2022-08-01T18:26:38.449Z,1.30
2022-08-01T18:29:07.922Z,1.20
2022-08-01T18:31:36.778Z,2.10
2022-08-01T18:34:05.457Z,3.53
2022-08-01T18:36:35.406Z,1.23
2022-08-01T18:39:10.839Z,1.50
2022-08-01T18:41:40.044Z,1.30
2022-08-01T18:44:09.226Z,1.67
2022-08-01T18:46:38.701Z,2.23
2022-08-01T18:49:07.744Z,2.00
2022-08-01T18:51:43.442Z,1.30
2022-08-01T18:54:13.167Z,1.20
2022-08-01T18:56:42.157Z,1.50
2022-08-01T18:59:11.030Z,1.10
2022-08-01T19:01:40.023Z,1.57
2022-08-01T19:04:08.885Z,2.13
2022-08-01T19:06:40.178Z,1.70
2022-08-01T19:09:23.013Z,1.45
2022-08-01T19:11:51.658Z,1.60
2022-08-01T19:14:20.284Z,2.70
2022-08-01T19:16:48.979Z,1.50
2022-08-01T19:19:27.664Z,2.67
2022-08-01T19:21:58.209Z,2.00
2022-08-01T19:24:26.805Z,1.27
2022-08-01T19:26:56.126Z,1.47
2022-08-01T19:29:27.610Z,1.47
2022-08-01T19:32:05.374Z,2.13
2022-08-01T19:34:36.108Z,1.83
2022-08-01T19:37:06.330Z,1.47
2022-08-01T19:39:35.178Z,1.90
2022-08-01T19:42:04.094Z,1.50
2022-08-01T19:44:33.116Z,1.43
2022-08-01T19:47:02.660Z,1.60
2022-08-01T19:49:31.337Z,1.77
2022-08-01T19:52:02.268Z,1.33
2022-08-01T19:54:35.076Z,2.73
2022-08-01T19:57:04.980Z,1.60
2022-08-01T19:59:34.642Z,1.50
2022-08-01T20:02:03.841Z,1.60
2022-08-01T20:04:33.533Z,1.40
2022-08-01T20:07:03.071Z,1.47
2022-08-01T20:09:33.334Z,1.93
2022-08-01T20:12:03.325Z,1.60
2022-08-01T20:14:31.968Z,1.90
2022-08-01T20:17:00.649Z,2.50
2022-08-01T20:19:30.505Z,2.27
2022-08-01T20:22:03.039Z,2.33
2022-08-01T20:24:39.456Z,2.87
2022-08-01T20:27:11.199Z,2.53
2022-08-01T20:29:40.520Z,2.80
2022-08-01T20:32:09.574Z,1.77
2022-08-01T20:34:39.083Z,2.43
2022-08-01T20:37:09.185Z,2.20
2022-08-01T20:39:43.293Z,1.83
2022-08-01T20:42:14.752Z,1.77
2022-08-01T20:44:45.119Z,2.10
2022-08-01T20:47:14.542Z,2.13
2022-08-01T20:49:44.397Z,2.27
2022-08-01T20:52:13.161Z,1.63
2022-08-01T20:54:42.480Z,3.17
2022-08-01T20:57:14.012Z,1.60
2022-08-01T20:59:56.685Z,1.97
2022-08-01T21:02:47.609Z,2.00
2022-08-01T21:05:22.499Z,3.10
2022-08-01T21:07:52.143Z,2.07
2022-08-01T21:10:21.873Z,3.30
2022-08-01T21:12:51.376Z,2.53
2022-08-01T21:15:25.872Z,2.43
2022-08-01T21:17:57.577Z,1.80
2022-08-01T21:20:28.712Z,1.40
2022-08-01T21:23:05.184Z,1.67
2022-08-01T21:25:35.908Z,1.57
2022-08-01T21:28:05.098Z,2.10
2022-08-01T21:30:36.686Z,2.10
2022-08-01T21:33:06.737Z,1.70
2022-08-01T21:35:36.436Z,1.80
2022-08-01T21:38:06.141Z,1.67
2022-08-01T21:40:35.981Z,1.63
2022-08-01T21:43:05.985Z,2.37
2022-08-01T21:45:35.947Z,1.97
2022-08-01T21:48:05.864Z,1.80
2022-08-01T21:50:41.070Z,1.97
2022-08-01T21:53:12.023Z,1.70
2022-08-01T21:55:51.722Z,2.60
2022-08-01T21:58:25.409Z,2.00
2022-08-01T22:01:00.784Z,1.50
2022-08-01T22:03:32.133Z,1.63
2022-08-01T22:06:02.649Z,1.83
2022-08-01T22:08:35.106Z,1.70
2022-08-01T22:11:06.004Z,1.47
2022-08-01T22:13:35.139Z,1.80
2022-08-01T22:16:06.596Z,1.90
2022-08-01T22:18:36.148Z,2.90
2022-08-01T22:21:05.221Z,1.73
2022-08-01T22:23:36.692Z,1.83
2022-08-01T22:26:07.577Z,2.10
2022-08-01T22:28:36.628Z,1.93
2022-08-01T22:31:07.709Z,1.70
2022-08-01T22:33:37.297Z,2.53
2022-08-01T22:36:06.359Z,1.80
2022-08-01T22:38:36.181Z,2.07
2022-08-01T22:41:05.995Z,2.70
2022-08-01T22:43:38.924Z,2.20
2022-08-01T22:46:27.170Z,2.27
2022-08-01T22:49:01.771Z,2.20
2022-08-01T22:51:36.021Z,2.20
2022-08-01T22:54:09.670Z,3.60
2022-08-01T22:56:39.889Z,2.20
2022-08-01T22:59:10.971Z,1.80
2022-08-01T23:01:47.763Z,1.90
2022-08-01T23:04:30.764Z,1.80
2022-08-01T23:07:05.490Z,4.23
2022-08-01T23:09:39.208Z,2.20
2022-08-01T23:12:23.117Z,2.33
2022-08-01T23:14:53.019Z,3.03
2022-08-01T23:17:26.991Z,2.17
2022-08-01T23:19:58.506Z,2.13
2022-08-01T23:22:29.295Z,1.60
2022-08-01T23:25:04.140Z,1.70
2022-08-01T23:27:51.831Z,1.87
2022-08-01T23:30:25.253Z,1.87
2022-08-01T23:32:55.299Z,1.57
2022-08-01T23:35:24.218Z,2.23
2022-08-01T23:37:53.018Z,1.80
2022-08-01T23:40:24.916Z,2.73
2022-08-01T23:42:54.479Z,1.90
2022-08-01T23:45:23.592Z,2.90
2022-08-01T23:47:52.435Z,2.10
2022-08-01T23:50:22.888Z,2.30
2022-08-01T23:52:51.995Z,3.20
2022-08-01T23:55:29.812Z,3.47
2022-08-01T23:58:06.403Z,2.20
